Vliegveldwaarnemingen Nederland - (AUTO) METAR

Luchtvaartmeteorologische informatie voor operationeel gebruik en vluchtvoorbereiding is beschikbaar op www.luchtvaartmeteo.nl.

ZCZC
SA280725 EHFS     VLISSINGEN AWS   NLD   8 m.
METAR EHFS 280725Z AUTO 20009KT 2000 BR SCT000/// OVC002/// 06/06
Q1020=

ZCZC
SA280725 EHSG     BSA   NLD   43 m.
METAR EHSG 280725Z AUTO 23007KT 9999 FEW009/// BKN011/// OVC013///
08/06 Q1020=

ZCZC
SA280755 EHKD     DE KOOY/DE KOOY   NLD   1 m.
METAR EHKD 280755Z AUTO 22005KT 8000 BR FEW012 OVC015 07/06 Q1019
WHT TEMPO SCT005 BKN010=

ZCZC
SA280755 EHFD     F3-FB-1   NLD   50 m.
METAR EHFD 280755Z AUTO 24013KT 9999 NSC 06/05 Q1016=

ZCZC
SA280755 EHAM     AMSTERDAM/SCHIPHOL   NLD   -3 m.
METAR EHAM 280755Z 18007KT 8000 FEW006 BKN007 BKN012 06/05 Q1020
TEMPO BKN012=

ZCZC
SA280755 EHVL     VLIELAND   NLD   10 m.
METAR EHVL 280755Z AUTO 25009KT 9999 OVC015 07/06 Q1018 WHT=

ZCZC
SA280755 EHJR     K13-A   NLD   37 m.
METAR EHJR 280755Z AUTO 25009KT //// // ///////// 07/05 Q1019 RE//
W08/H7=

ZCZC
SA280755 EHLE     LELYSTAD/LELYSTAD   NLD   -3 m.
METAR EHLE 280755Z AUTO 17005KT 140V200 7000 BKN017 OVC021 04/04
Q1020 BECMG BKN012=

ZCZC
SA280755 EHLW     LEEUWARDEN/LEEUWARDEN   NLD   1 m.
METAR EHLW 280755Z AUTO 23004KT 3700 BR OVC003 05/05 Q1019
YLO TEMPO 1500 BR SCT002 BKN003 OVC005=

ZCZC
SA280755 EHDL     ARNHEM/DEELEN   NLD   48 m.
METAR EHDL 280755Z AUTO 19006KT 120V220 4200 BR SCT006 SCT021 BKN043
02/02 Q1021 YLO=

ZCZC
SA280755 EHGG     GRONINGEN/EELDE   NLD   5 m.
METAR EHGG 280755Z AUTO 20006KT 180V240 5000 OVC006/// 04/03 Q1020
TEMPO BKN004=

ZCZC
SA280755 EHSC     LICHTEILAND GOEREE   NLD   22 m.
METAR EHSC 280755Z AUTO 21011KT 9999 ///////// 08/08 Q1020 W08/H5=

ZCZC
SA280755 EHSA     EURO PLATFORM   NLD   19 m.
METAR EHSA 280755Z AUTO 24006KT 9999 ///////// 08/06 Q1020 W09/H5=

ZCZC
SA280755 EHWO     WOENSDRECHT/WOENSDRECHT   NLD   19 m.
METAR EHWO 280755Z AUTO VRB02KT 8000 BR BKN014 BKN016 OVC020 05/04
Q1021 GRN=

ZCZC
SA280755 EHRD     ROTTERDAM/THE HAGUE AIRPORT   NLD   -5 m.
METAR EHRD 280755Z AUTO 19006KT 9000 BKN010/// BKN012/// OVC016///
06/05 Q1020 TEMPO BKN008=

ZCZC
SA280755 EHGR     GILZE-RIJEN/GILZE-RIJEN   NLD   14 m.
METAR EHGR 280755Z AUTO 19006KT 140V240 6000 BR OVC005 03/02 Q1021
YLO TEMPO SCT004 BKN015=

ZCZC
SA280755 EHEH CCA EINDHOVEN/EINDHOVEN   NLD   22 m.
METAR COR EHEH 280755Z AUTO 18005KT 4600 BR OVC041 02/01 Q1021
GRN BECMG 9999 NSW TEMPO FEW007 SCT012 BKN020=

ZCZC
SA280755 EHVK     VOLKEL/VOLKEL   NLD   21 m.
METAR EHVK 280755Z AUTO 18004KT 110V170 4100 BR BKN041 OVC045 01/01
Q1021
GRN TEMPO 4000 BR BECMG 9999 NSW=

ZCZC
SA280755 EHBK     MAASTRICHT/MAASTRICHT-AACHEN   NLD   114 m.
METAR EHBK 280755Z AUTO 20010KT 2400 BR OVC003 03/03 Q1022 BECMG 4000
BKN004=

ZCZC
SA280755 EHKV     K14-FA-1C   NLD   41 m.
METAR EHKV 280755Z AUTO 26009KT 9999 NSC 07/05 Q1019=

ZCZC
SA280755 EHMG     L9-FF-1   NLD   44 m.
METAR EHMG 280755Z AUTO 25008KT 9999 NSC 07/05 Q1019=

ZCZC
SA280755 EHMA     AWG-1   NLD   40 m.
METAR EHMA 280755Z AUTO VRB15KT 1600 BR SCT000 BKN001 OVC003 06/05
Q1019=

ZCZC
SA280755 EHDV     D15-FA-1   NLD   42 m.
METAR EHDV 280755Z AUTO 25011KT 150V310 9999 NSC 07/05 Q1017=

ZCZC
SA280755 EHAK     A12-CPP   NLD   48 m.
METAR EHAK 280755Z AUTO 24013KT 9999 NSC 07/05 Q1015=

ZCZC
SA280755 EHJA     J6-A   NLD   45 m.
METAR EHJA 280755Z AUTO 23012KT 9999 NSC 07/05 Q1017=

ZCZC
SA280755 EHPG     P11-B   NLD   41 m.
METAR EHPG 280755Z AUTO 23006KT 180V240 9999 BKN008 BKN009 08/05
Q1020=

ZCZC
SA280755 EHHW     BUITENGAATS/BG-OHVS2      42 m.
METAR EHHW 280755Z AUTO 23006KT 180V280 9999 FEW008/// SCT013///
BKN015/// 07/05 Q1018=

28/02/2024 09.00 uur LT